createdAt,value
2022-08-18T00:01:23.954Z,15.02
2022-08-18T00:03:59.148Z,13.75
2022-08-18T00:06:32.429Z,13.52
2022-08-18T00:09:03.118Z,14.35
2022-08-18T00:11:41.374Z,15.95
2022-08-18T00:14:21.395Z,13.63
2022-08-18T00:16:53.394Z,13.05
2022-08-18T00:19:47.520Z,13.53
2022-08-18T00:22:20.313Z,15.63
2022-08-18T00:24:52.086Z,14.95
2022-08-18T00:29:54.402Z,14.50
2022-08-18T00:32:29.854Z,15.07
2022-08-18T00:35:05.869Z,13.73
2022-08-18T00:37:34.837Z,13.60
2022-08-18T00:40:04.746Z,20.23
2022-08-18T00:42:34.548Z,13.25
2022-08-18T00:45:06.251Z,12.10
2022-08-18T00:47:42.856Z,13.73
2022-08-18T00:50:22.872Z,15.13
2022-08-18T00:52:55.744Z,12.80
2022-08-18T00:55:26.456Z,12.20
2022-08-18T00:58:02.230Z,14.43
2022-08-18T01:00:33.029Z,13.13
2022-08-18T01:03:05.844Z,14.63
2022-08-18T01:05:43.671Z,16.38
2022-08-18T01:08:17.112Z,14.82
2022-08-18T01:10:59.289Z,16.00
2022-08-18T01:13:30.911Z,14.43
2022-08-18T01:18:45.928Z,13.05
2022-08-18T01:21:39.077Z,14.38
2022-08-18T01:24:13.257Z,14.43
2022-08-18T01:26:50.731Z,15.07
2022-08-18T01:29:21.089Z,15.30
2022-08-18T01:31:55.705Z,14.65
2022-08-18T01:34:29.040Z,13.68
2022-08-18T01:36:58.976Z,14.70
2022-08-18T01:41:22.912Z,14.68
2022-08-18T01:42:19.711Z,19.23
2022-08-18T01:44:51.736Z,15.23
2022-08-18T01:47:21.710Z,15.85
2022-08-18T01:49:50.556Z,16.92
2022-08-18T01:52:21.455Z,13.38
2022-08-18T01:54:53.354Z,17.03
2022-08-18T01:59:52.025Z,16.58
2022-08-18T02:05:02.624Z,14.25
2022-08-18T02:07:35.936Z,14.43
2022-08-18T02:10:11.843Z,13.13
2022-08-18T02:12:41.964Z,18.15
2022-08-18T02:15:12.126Z,14.55
2022-08-18T02:17:42.138Z,15.60
2022-08-18T02:20:15.229Z,14.70
2022-08-18T02:22:46.155Z,13.82
2022-08-18T02:25:18.089Z,11.95
2022-08-18T02:27:47.622Z,11.88
2022-08-18T02:30:19.089Z,12.43
2022-08-18T02:32:48.718Z,15.65
2022-08-18T02:35:17.757Z,14.73
2022-08-18T02:37:48.487Z,15.02
2022-08-18T02:40:19.524Z,13.32
2022-08-18T02:42:49.977Z,13.63
2022-08-18T02:45:21.564Z,11.80
2022-08-18T02:47:53.821Z,9.43
2022-08-18T02:50:24.072Z,8.60
2022-08-18T02:52:54.705Z,8.05
2022-08-18T02:55:26.990Z,7.53
2022-08-18T02:57:56.880Z,5.60
2022-08-18T03:00:25.884Z,6.95
2022-08-18T03:02:55.399Z,6.78
2022-08-18T03:05:24.594Z,8.23
2022-08-18T03:07:54.299Z,7.18
2022-08-18T03:10:31.642Z,9.65
2022-08-18T03:13:04.292Z,9.30
2022-08-18T03:15:33.691Z,8.85
2022-08-18T03:18:03.351Z,9.57
2022-08-18T03:20:35.444Z,9.18
2022-08-18T03:25:45.774Z,8.80
2022-08-18T03:28:17.927Z,9.32
2022-08-18T03:30:47.905Z,8.02
2022-08-18T03:33:17.567Z,8.77
2022-08-18T03:35:47.398Z,8.32
2022-08-18T03:38:17.627Z,9.43
2022-08-18T03:40:54.447Z,9.65
2022-08-18T03:43:50.810Z,8.40
2022-08-18T03:46:16.925Z,8.15
2022-08-18T03:48:47.682Z,5.88
2022-08-18T03:51:19.008Z,6.65
2022-08-18T03:53:49.712Z,7.07
2022-08-18T03:56:23.698Z,5.88
2022-08-18T03:58:55.389Z,6.80
2022-08-18T04:01:27.492Z,9.73
2022-08-18T04:03:58.456Z,9.60
2022-08-18T04:06:32.416Z,10.80
2022-08-18T04:09:04.842Z,11.93
2022-08-18T04:11:37.531Z,7.45
2022-08-18T04:14:07.806Z,9.98
2022-08-18T04:16:41.661Z,8.90
2022-08-18T04:19:14.205Z,10.05
2022-08-18T04:21:56.607Z,8.40
2022-08-18T04:24:28.254Z,8.32
2022-08-18T04:27:03.260Z,8.30
2022-08-18T04:29:34.537Z,10.43
2022-08-18T04:32:05.303Z,7.97
2022-08-18T04:34:35.318Z,7.22
2022-08-18T04:37:05.295Z,7.90
2022-08-18T04:39:35.161Z,7.05
2022-08-18T04:42:06.749Z,10.30
2022-08-18T04:44:38.026Z,7.25
2022-08-18T04:49:39.769Z,7.47
2022-08-18T04:52:39.867Z,10.90
2022-08-18T04:55:11.855Z,10.73
2022-08-18T04:57:42.906Z,9.02
2022-08-18T05:00:14.268Z,10.90
2022-08-18T05:02:44.474Z,9.50
2022-08-18T05:05:14.606Z,12.30
2022-08-18T05:07:48.116Z,13.00
2022-08-18T05:10:18.641Z,12.13
2022-08-18T05:12:50.607Z,11.48
2022-08-18T05:15:20.637Z,10.23
2022-08-18T05:17:51.234Z,9.13
2022-08-18T05:20:23.742Z,9.63
2022-08-18T05:22:52.734Z,14.30
2022-08-18T05:25:22.316Z,12.65
2022-08-18T05:27:53.419Z,13.80
2022-08-18T05:30:23.011Z,11.98
2022-08-18T05:32:52.922Z,13.93
2022-08-18T05:35:26.734Z,14.68
2022-08-18T05:38:18.977Z,17.38
2022-08-18T05:41:03.787Z,19.42
2022-08-18T05:43:35.043Z,20.02
2022-08-18T05:46:07.488Z,16.97
2022-08-18T05:48:42.688Z,15.75
2022-08-18T05:51:18.138Z,14.73
2022-08-18T05:54:05.326Z,15.95
2022-08-18T05:56:49.806Z,18.38
2022-08-18T05:59:25.216Z,18.52
2022-08-18T06:02:02.353Z,14.05
2022-08-18T06:04:42.904Z,15.15
2022-08-18T06:07:15.956Z,16.55
2022-08-18T06:09:51.474Z,17.75
2022-08-18T06:12:29.661Z,18.52
2022-08-18T06:15:06.464Z,15.95
2022-08-18T06:17:56.575Z,17.52
2022-08-18T06:20:32.372Z,18.27
2022-08-18T06:23:15.307Z,18.13
2022-08-18T06:25:59.470Z,18.80
2022-08-18T06:28:38.058Z,17.02
2022-08-18T06:31:27.478Z,18.35
2022-08-18T06:34:07.806Z,16.90
2022-08-18T06:36:47.051Z,15.98
2022-08-18T06:39:24.712Z,16.75
2022-08-18T06:41:55.334Z,16.17
2022-08-18T06:44:35.181Z,15.30
2022-08-18T06:47:16.731Z,15.48
2022-08-18T06:49:51.487Z,17.73
2022-08-18T06:52:29.560Z,15.57
2022-08-18T06:55:01.307Z,14.32
2022-08-18T06:57:36.698Z,13.95
2022-08-18T07:00:26.003Z,13.23
2022-08-18T07:03:02.999Z,12.02
2022-08-18T07:05:33.892Z,15.55
2022-08-18T07:08:15.265Z,15.38
2022-08-18T07:10:49.404Z,16.67
2022-08-18T07:13:26.564Z,14.93
2022-08-18T07:15:57.180Z,14.85
2022-08-18T07:18:30.214Z,12.70
2022-08-18T07:21:00.555Z,13.48
2022-08-18T07:23:34.592Z,12.15
2022-08-18T07:26:10.874Z,16.38
2022-08-18T07:28:44.573Z,13.93
2022-08-18T07:31:26.253Z,14.52
2022-08-18T07:34:02.753Z,13.35
2022-08-18T07:36:36.866Z,12.07
2022-08-18T07:39:12.193Z,12.85
2022-08-18T07:41:45.780Z,14.25
2022-08-18T07:44:21.753Z,12.80
2022-08-18T07:47:01.436Z,10.35
2022-08-18T07:49:36.143Z,12.65
2022-08-18T07:52:19.961Z,12.05
2022-08-18T07:55:05.437Z,23.48
2022-08-18T07:57:43.587Z,11.32
2022-08-18T08:00:35.062Z,13.05
2022-08-18T08:05:50.272Z,11.07
2022-08-18T08:08:25.493Z,10.68
2022-08-18T08:11:08.793Z,9.30
2022-08-18T08:13:57.849Z,9.57
2022-08-18T08:16:37.642Z,8.68
2022-08-18T08:19:49.434Z,9.18
2022-08-18T08:22:23.002Z,9.90
2022-08-18T08:25:10.737Z,9.50
2022-08-18T08:28:07.497Z,9.60
2022-08-18T08:30:44.586Z,8.73
2022-08-18T08:33:24.953Z,7.60
2022-08-18T08:36:04.733Z,11.68
2022-08-18T08:38:45.267Z,10.18
2022-08-18T08:41:21.145Z,9.63
2022-08-18T08:43:55.002Z,8.75
2022-08-18T08:46:30.571Z,12.25
2022-08-18T08:49:07.713Z,8.85
2022-08-18T08:51:40.730Z,9.80
2022-08-18T08:54:18.799Z,8.02
2022-08-18T08:56:51.526Z,8.93
2022-08-18T08:59:23.558Z,11.27
2022-08-18T09:02:02.573Z,9.27
2022-08-18T09:05:04.888Z,9.02
2022-08-18T09:07:50.837Z,11.48
2022-08-18T09:10:53.308Z,11.07
2022-08-18T09:13:49.417Z,11.40
2022-08-18T09:16:30.587Z,9.35
2022-08-18T09:19:17.820Z,10.70
2022-08-18T09:21:55.492Z,8.63
2022-08-18T09:24:28.092Z,8.60
2022-08-18T09:27:16.110Z,13.70
2022-08-18T09:29:52.652Z,7.47
2022-08-18T09:32:50.994Z,10.30
2022-08-18T09:35:46.492Z,12.40
2022-08-18T09:38:42.943Z,9.63
2022-08-18T09:41:35.634Z,9.10
2022-08-18T09:47:01.665Z,13.05
2022-08-18T09:49:47.938Z,8.27
2022-08-18T09:52:50.605Z,9.27
2022-08-18T09:55:42.560Z,10.63
2022-08-18T09:58:43.237Z,10.10
2022-08-18T10:01:42.799Z,10.65
2022-08-18T10:04:36.495Z,9.32
2022-08-18T10:07:37.025Z,9.25
2022-08-18T10:11:00.017Z,8.93
2022-08-18T10:13:25.122Z,12.48
2022-08-18T10:16:10.804Z,7.28
2022-08-18T10:18:55.039Z,8.77
2022-08-18T10:21:31.596Z,7.57
2022-08-18T10:24:36.484Z,10.13
2022-08-18T10:27:10.203Z,6.15
2022-08-18T10:29:59.320Z,7.05
2022-08-18T10:32:54.454Z,10.85
2022-08-18T10:35:59.192Z,8.75
2022-08-18T10:38:47.863Z,12.18
2022-08-18T10:41:25.692Z,9.80
2022-08-18T10:43:57.505Z,8.60
2022-08-18T10:46:32.541Z,10.90
2022-08-18T10:49:07.149Z,10.48
2022-08-18T10:52:07.067Z,9.90
2022-08-18T10:54:50.920Z,10.35
2022-08-18T10:57:34.111Z,10.88
2022-08-18T11:00:09.696Z,13.85
2022-08-18T11:06:05.623Z,10.88
2022-08-18T11:08:45.259Z,7.97
2022-08-18T11:11:37.667Z,10.85
2022-08-18T11:14:20.984Z,11.60
2022-08-18T11:16:59.048Z,10.00
2022-08-18T11:19:28.817Z,10.27
2022-08-18T11:21:58.921Z,9.10
2022-08-18T11:24:31.637Z,11.02
2022-08-18T11:27:04.229Z,12.52
2022-08-18T11:29:41.122Z,7.68
2022-08-18T11:32:17.944Z,10.18
2022-08-18T11:34:52.295Z,9.38
2022-08-18T11:37:28.358Z,9.77
2022-08-18T11:43:29.894Z,11.35
2022-08-18T11:46:16.994Z,9.63
2022-08-18T11:48:54.854Z,8.32
2022-08-18T11:51:27.068Z,8.98
2022-08-18T11:54:00.218Z,6.75
2022-08-18T11:56:35.915Z,8.95
2022-08-18T11:59:11.626Z,10.02
2022-08-18T12:01:51.349Z,6.15
2022-08-18T12:04:30.306Z,9.05
2022-08-18T12:07:04.547Z,7.03
2022-08-18T12:12:35.829Z,8.43
2022-08-18T12:15:24.589Z,8.20
2022-08-18T12:17:54.383Z,6.55
2022-08-18T12:20:23.865Z,6.35
2022-08-18T12:22:54.517Z,8.65
2022-08-18T12:25:25.735Z,9.65
2022-08-18T12:27:55.132Z,7.43
2022-08-18T12:30:25.275Z,8.75
2022-08-18T12:33:05.705Z,7.97
2022-08-18T12:35:42.299Z,9.80
2022-08-18T12:38:13.939Z,9.60
2022-08-18T12:40:44.797Z,6.78
2022-08-18T12:43:13.979Z,8.55
2022-08-18T12:45:45.055Z,7.60
2022-08-18T12:48:14.089Z,9.57
2022-08-18T12:53:58.347Z,9.02
2022-08-18T12:56:25.353Z,8.73
2022-08-18T12:58:55.681Z,8.85
2022-08-18T13:01:26.884Z,7.30
2022-08-18T13:06:59.889Z,7.30
2022-08-18T13:09:48.200Z,9.13
2022-08-18T13:12:20.886Z,8.15
2022-08-18T13:14:51.207Z,10.52
2022-08-18T13:17:32.543Z,9.43
2022-08-18T13:20:06.667Z,7.13
2022-08-18T13:22:40.650Z,6.93
2022-08-18T13:25:12.563Z,8.68
2022-08-18T13:27:43.528Z,6.57
2022-08-18T13:30:31.379Z,7.22
2022-08-18T13:33:33.862Z,7.68
2022-08-18T13:35:54.915Z,12.60
2022-08-18T13:38:27.580Z,7.53
2022-08-18T13:41:00.456Z,8.35
2022-08-18T13:43:34.317Z,8.43
2022-08-18T13:46:06.266Z,7.07
2022-08-18T13:48:36.923Z,9.10
2022-08-18T13:51:08.429Z,6.78
2022-08-18T13:53:50.550Z,7.03
2022-08-18T13:56:31.558Z,7.70
2022-08-18T13:59:01.334Z,11.80
2022-08-18T14:01:44.628Z,8.00
2022-08-18T14:04:23.197Z,7.75
2022-08-18T14:06:59.891Z,8.10
2022-08-18T14:09:37.163Z,10.27
2022-08-18T14:12:15.795Z,6.53
2022-08-18T14:14:51.893Z,6.15
2022-08-18T14:17:22.571Z,7.72
2022-08-18T14:20:21.173Z,8.98
2022-08-18T14:23:09.571Z,7.38
2022-08-18T14:25:55.951Z,6.35
2022-08-18T14:28:25.388Z,7.90
2022-08-18T14:30:55.285Z,7.10
2022-08-18T14:33:34.212Z,8.75
2022-08-18T14:36:16.812Z,7.43
2022-08-18T14:38:47.034Z,7.07
2022-08-18T14:41:25.452Z,6.90
2022-08-18T14:44:11.886Z,9.20
2022-08-18T14:46:42.325Z,7.15
2022-08-18T14:49:28.304Z,8.07
2022-08-18T14:52:00.799Z,6.70
2022-08-18T14:54:30.663Z,7.28
2022-08-18T14:57:01.031Z,6.25
2022-08-18T14:59:30.986Z,8.73
2022-08-18T15:02:07.039Z,5.25
2022-08-18T15:04:56.098Z,8.57
2022-08-18T15:07:28.514Z,6.60
2022-08-18T15:10:15.546Z,7.75
2022-08-18T15:12:45.977Z,10.82
2022-08-18T15:15:18.077Z,6.53
2022-08-18T15:17:52.376Z,8.55
2022-08-18T15:20:24.057Z,6.38
2022-08-18T15:23:24.863Z,5.95
2022-08-18T15:25:58.985Z,6.50
2022-08-18T15:28:28.146Z,7.47
2022-08-18T15:33:51.158Z,6.30
2022-08-18T15:36:24.064Z,7.78
2022-08-18T15:38:59.397Z,8.52
2022-08-18T15:41:34.821Z,7.28
2022-08-18T15:44:08.876Z,7.18
2022-08-18T15:46:40.026Z,6.28
2022-08-18T15:49:15.000Z,8.88
2022-08-18T15:51:45.603Z,7.53
2022-08-18T15:54:20.788Z,7.65
2022-08-18T15:56:57.857Z,7.32
2022-08-18T15:59:34.359Z,10.80
2022-08-18T16:04:45.024Z,7.78
2022-08-18T16:07:18.038Z,9.32
2022-08-18T16:10:02.553Z,6.05
2022-08-18T16:12:31.700Z,17.88
2022-08-18T16:15:03.855Z,10.45
2022-08-18T16:17:36.882Z,10.13
2022-08-18T16:20:08.370Z,8.23
2022-08-18T16:22:38.929Z,6.40
2022-08-18T16:25:10.638Z,11.00
2022-08-18T16:27:41.945Z,9.70
2022-08-18T16:30:12.836Z,8.00
2022-08-18T16:32:42.573Z,7.10
2022-08-18T16:35:12.674Z,9.38
2022-08-18T16:37:42.273Z,8.55
2022-08-18T16:40:15.475Z,6.13
2022-08-18T16:42:44.651Z,9.02
2022-08-18T16:45:13.761Z,7.97
2022-08-18T16:47:42.664Z,9.57
2022-08-18T16:50:14.735Z,8.52
2022-08-18T16:52:43.877Z,10.85
2022-08-18T16:55:14.526Z,8.40
2022-08-18T16:58:02.414Z,9.85
2022-08-18T17:00:54.812Z,15.10
2022-08-18T17:03:41.601Z,16.02
2022-08-18T17:06:12.717Z,9.25
2022-08-18T17:08:41.799Z,16.45
2022-08-18T17:11:14.071Z,14.50
2022-08-18T17:13:43.808Z,19.52
2022-08-18T17:16:13.237Z,18.85
2022-08-18T17:18:42.558Z,14.73
2022-08-18T17:21:14.758Z,10.63
2022-08-18T17:23:43.819Z,11.13
2022-08-18T17:26:34.565Z,9.20
2022-08-18T17:29:08.253Z,7.70
2022-08-18T17:31:37.899Z,9.40
2022-08-18T17:34:12.484Z,10.15
2022-08-18T17:36:52.577Z,18.20
2022-08-18T17:39:25.953Z,14.57
2022-08-18T17:42:13.255Z,13.20
2022-08-18T17:44:52.023Z,24.50
2022-08-18T17:47:26.817Z,15.23
2022-08-18T17:50:27.743Z,14.57
2022-08-18T17:53:05.682Z,14.25
2022-08-18T17:55:40.654Z,12.57
2022-08-18T17:58:18.821Z,12.93
2022-08-18T18:00:47.542Z,14.93
2022-08-18T18:03:16.459Z,13.68
2022-08-18T18:05:49.755Z,15.35
2022-08-18T18:08:18.890Z,14.70
2022-08-18T18:11:04.869Z,16.48
2022-08-18T18:13:36.631Z,18.52
2022-08-18T18:16:24.234Z,23.08
2022-08-18T18:18:59.848Z,16.42
2022-08-18T18:21:57.652Z,16.02
2022-08-18T18:24:23.971Z,15.88
2022-08-18T18:26:53.377Z,15.77
2022-08-18T18:29:32.295Z,10.82
2022-08-18T18:32:05.877Z,14.10
2022-08-18T18:34:39.853Z,10.38
2022-08-18T18:37:27.419Z,13.00
2022-08-18T18:39:57.796Z,11.80
2022-08-18T18:42:30.493Z,13.43
2022-08-18T18:45:02.731Z,12.88
2022-08-18T18:47:50.050Z,12.02
2022-08-18T18:50:29.201Z,14.45
2022-08-18T18:53:12.463Z,11.13
2022-08-18T18:55:50.321Z,13.75
2022-08-18T18:58:27.402Z,18.40
2022-08-18T19:01:04.038Z,11.48
2022-08-18T19:03:39.700Z,12.43
2022-08-18T19:06:20.179Z,13.20
2022-08-18T19:09:00.831Z,11.13
2022-08-18T19:11:38.791Z,9.55
2022-08-18T19:14:15.426Z,17.77
2022-08-18T19:16:55.252Z,13.05
2022-08-18T19:19:36.709Z,14.05
2022-08-18T19:22:14.941Z,14.70
2022-08-18T19:24:55.697Z,13.60
2022-08-18T19:27:30.356Z,11.63
2022-08-18T19:30:05.298Z,10.10
2022-08-18T19:32:44.915Z,12.82
2022-08-18T19:35:19.621Z,15.55
2022-08-18T19:38:06.381Z,14.38
2022-08-18T19:40:48.342Z,13.77
2022-08-18T19:43:27.829Z,12.15
2022-08-18T19:46:03.578Z,10.57
2022-08-18T19:48:41.213Z,10.25
2022-08-18T19:51:16.152Z,12.07
2022-08-18T19:54:02.300Z,19.13
2022-08-18T19:56:49.293Z,12.48
2022-08-18T19:59:40.459Z,9.77
2022-08-18T20:02:26.648Z,13.55
2022-08-18T20:05:16.737Z,10.48
2022-08-18T20:07:58.871Z,13.35
2022-08-18T20:10:40.840Z,12.52
2022-08-18T20:13:27.755Z,11.30
2022-08-18T20:16:12.610Z,11.00
2022-08-18T20:18:44.388Z,11.50
2022-08-18T20:21:45.847Z,10.95
2022-08-18T20:24:35.772Z,9.40
2022-08-18T20:27:25.542Z,13.70
2022-08-18T20:30:17.851Z,11.00
2022-08-18T20:33:11.657Z,14.23
2022-08-18T20:35:47.908Z,10.02
2022-08-18T20:38:35.776Z,11.95
2022-08-18T20:41:38.050Z,11.30
2022-08-18T20:44:37.681Z,11.25
2022-08-18T20:47:24.110Z,10.75
2022-08-18T20:50:04.751Z,10.68
2022-08-18T20:52:49.073Z,10.15
2022-08-18T20:55:30.790Z,10.63
2022-08-18T20:58:08.333Z,11.88
2022-08-18T21:00:46.775Z,14.10
2022-08-18T21:03:21.130Z,12.45
2022-08-18T21:05:57.190Z,13.27
2022-08-18T21:08:29.108Z,17.55
2022-08-18T21:11:02.352Z,10.93
2022-08-18T21:13:36.332Z,14.52
2022-08-18T21:16:05.271Z,11.65
2022-08-18T21:18:35.236Z,12.32
2022-08-18T21:21:07.544Z,12.07
2022-08-18T21:23:41.401Z,15.60
2022-08-18T21:26:16.988Z,11.02
2022-08-18T21:28:49.865Z,13.27
2022-08-18T21:31:41.676Z,10.32
2022-08-18T21:34:18.739Z,11.07
2022-08-18T21:36:54.855Z,19.42
2022-08-18T21:39:24.102Z,15.35
2022-08-18T21:41:57.015Z,14.75
2022-08-18T21:44:30.590Z,10.05
2022-08-18T21:47:06.654Z,11.43
2022-08-18T21:49:35.614Z,14.00
2022-08-18T21:52:05.251Z,12.70
2022-08-18T21:54:35.707Z,11.98
2022-08-18T21:57:22.872Z,9.93
2022-08-18T22:00:19.888Z,10.45
2022-08-18T22:02:52.270Z,14.27
2022-08-18T22:05:58.752Z,14.98
2022-08-18T22:08:23.820Z,11.77
2022-08-18T22:12:00.988Z,12.48
2022-08-18T22:14:54.275Z,16.25
2022-08-18T22:17:33.806Z,10.82
2022-08-18T22:20:48.705Z,10.27
2022-08-18T22:23:55.576Z,13.02
2022-08-18T22:26:31.956Z,11.85
2022-08-18T22:29:03.567Z,10.95
2022-08-18T22:31:36.917Z,9.23
2022-08-18T22:34:09.456Z,11.52
2022-08-18T22:36:41.470Z,11.10
2022-08-18T22:39:13.451Z,13.02
2022-08-18T22:41:46.429Z,11.30
2022-08-18T22:44:15.605Z,9.80
2022-08-18T22:46:45.784Z,10.38
2022-08-18T22:49:14.622Z,10.38
2022-08-18T22:51:45.206Z,11.02
2022-08-18T22:54:15.071Z,9.25
2022-08-18T22:56:54.063Z,14.02
2022-08-18T22:59:26.846Z,13.90
2022-08-18T23:01:59.699Z,10.45
2022-08-18T23:04:29.264Z,12.60
2022-08-18T23:06:59.333Z,10.82
2022-08-18T23:09:32.563Z,10.02
2022-08-18T23:12:05.895Z,11.93
2022-08-18T23:14:35.756Z,12.63
2022-08-18T23:17:07.441Z,14.07
2022-08-18T23:19:36.000Z,11.07
2022-08-18T23:22:06.796Z,11.93
2022-08-18T23:24:36.647Z,13.25
2022-08-18T23:27:06.583Z,10.02
2022-08-18T23:29:35.801Z,10.75
2022-08-18T23:32:07.044Z,12.48
2022-08-18T23:34:38.031Z,12.38
2022-08-18T23:37:08.003Z,12.13
2022-08-18T23:39:38.534Z,14.32
2022-08-18T23:42:13.387Z,11.30
2022-08-18T23:44:43.460Z,10.95
2022-08-18T23:47:13.599Z,9.98
2022-08-18T23:49:42.570Z,11.02
2022-08-18T23:52:11.312Z,10.55
2022-08-18T23:54:39.939Z,12.30
2022-08-18T23:57:08.823Z,11.55
2022-08-18T23:59:37.828Z,12.00
